Terminal Aerodrome Forecast
Issued by NWS Charleston, WV

Home | Current Version | Previous Version | Text Only | Print | Product List | Glossary On
Versions: 1 2 3 4 5 6 7 8 9 10 11 12 13 14 15 16 17 18 19 20 21 22 23 24 25 26 27
000
FTUS41 KRLX 311100
TAFHTS
TAF
KHTS 311127Z 3112/0112 00000KT 6SM BR BKN060
     FM311400 VRB03KT 6SM -SHRA OVC050
     FM311700 24004KT 5SM -SHRA BR OVC040
     FM312100 27005KT 3SM -SHRA BR OVC025
     FM010000 29008KT 2SM -SHRA BR OVC015
     FM010300 32009G14KT 2SM -SHRA BR BKN008 OVC015
     FM010500 33010G15KT 2SM -RASN BR BKN008 OVC015=

USA.gov is the U.S. government's official web portal to all federal, state and local government web resources and services.